الصفحة الرئيسية
METAR-TAF:

METAR-TAF

مطار :

لامرد, إيران

دائرة عرض: 27-22-22N, خط طول: 53-11-20E, ارتفاع: 408 متر

مراقبة الطقس الحالي

تاريخ ووقت الإصدار 1ساعة و 30 دقيقة قبل الساعة 15:00UTC
ريح 8 عقدة من الغرب
درجة الحرارة 38°درجة مئوية
الرطوبة 21%
ضغط 1000 hPa
الرؤية 10 كم أو أكثر
الغيوم لا تقل 1500 م ولا وجود لمزنة ركامية السحاب الأسود

METAR: OISR 141500Z 27008KT CAVOK 38/12 Q1000 A2953 NOSIG

زمن: 21:00 (16:30 UTC)


TAF: مفقودة

أرصاد الطقس والتوقعات من أكثر من 4000 مطار (تقارير الطقس للمطار METAR والتنبؤ بالطقس بالمطارTAF).

المحطات المتاحة هي النقط الصفراء والحمراء على الخريطة.

حرك المؤشر فوق النقطة لمعرفة اسم المحطة.

ثم انقر لمعرفة أرصاد وتوقعات الطقس.

لتغيير الخارطة: اضغط على الأزرار الخضراء مع رمز الصليب الأسود للتكبير. على الزر الأخضر مع شرطة للتصغير، أو على الأسهم الخضراء للخرائط المجاورة.


METAR-TAF: